createdAt,value
2022-11-04T00:02:44.743Z,10.35
2022-11-04T00:06:46.613Z,10.31
2022-11-04T00:11:06.563Z,10.27
2022-11-04T00:15:26.720Z,10.23
2022-11-04T00:19:28.348Z,10.15
2022-11-04T00:23:48.422Z,10.14
2022-11-04T00:28:08.933Z,10.11
2022-11-04T00:36:30.922Z,10.08
2022-11-04T00:40:32.206Z,10.04
2022-11-04T00:44:34.311Z,10.02
2022-11-04T00:48:35.556Z,10.02
2022-11-04T00:52:36.871Z,9.96
2022-11-04T00:56:39.185Z,9.91
2022-11-04T01:00:40.602Z,9.90
2022-11-04T01:04:42.104Z,9.83
2022-11-04T01:08:43.464Z,9.73
2022-11-04T01:12:44.717Z,9.66
2022-11-04T01:16:48.783Z,9.60
2022-11-04T01:20:50.063Z,9.52
2022-11-04T01:24:51.577Z,9.45
2022-11-04T01:28:54.736Z,9.37
2022-11-04T01:32:56.008Z,9.30
2022-11-04T01:36:57.427Z,9.29
2022-11-04T01:40:59.438Z,9.30
2022-11-04T01:45:01.205Z,9.32
2022-11-04T01:49:21.347Z,9.33
2022-11-04T01:53:34.558Z,9.36
2022-11-04T01:57:40.502Z,9.35
2022-11-04T02:01:42.526Z,9.36
2022-11-04T02:05:44.638Z,9.31
2022-11-04T02:09:47.126Z,9.32
2022-11-04T02:13:48.800Z,9.34
2022-11-04T02:18:00.184Z,9.33
2022-11-04T02:22:02.093Z,9.37
2022-11-04T02:26:24.055Z,9.37
2022-11-04T02:30:27.415Z,9.41
2022-11-04T02:34:37.856Z,9.43
2022-11-04T02:38:52.186Z,9.44
2022-11-04T02:43:08.580Z,9.39
2022-11-04T02:47:18.683Z,9.37
2022-11-04T02:51:24.942Z,9.30
2022-11-04T02:55:38.982Z,9.26
2022-11-04T02:59:49.474Z,9.24
2022-11-04T03:03:54.986Z,9.25
2022-11-04T03:07:57.938Z,9.28
2022-11-04T03:12:02.615Z,9.30
2022-11-04T03:16:06.583Z,9.31
2022-11-04T03:20:12.060Z,9.29
2022-11-04T03:24:13.685Z,9.18
2022-11-04T03:28:34.483Z,9.12
2022-11-04T03:32:58.820Z,9.10
2022-11-04T03:37:01.619Z,9.09
2022-11-04T03:41:07.142Z,9.08
2022-11-04T03:45:10.456Z,9.08
2022-11-04T03:49:12.237Z,9.00
2022-11-04T03:53:24.208Z,8.94
2022-11-04T03:57:25.551Z,8.89
2022-11-04T04:01:30.336Z,8.87
2022-11-04T04:05:36.955Z,8.83
2022-11-04T04:09:43.731Z,8.75
2022-11-04T04:14:06.626Z,8.67
2022-11-04T04:18:12.846Z,8.62
2022-11-04T04:22:18.649Z,8.56
2022-11-04T04:26:42.252Z,8.51
2022-11-04T04:30:44.519Z,8.44
2022-11-04T04:34:48.203Z,8.41
2022-11-04T04:39:08.132Z,8.33
2022-11-04T04:43:33.345Z,8.30
2022-11-04T04:47:40.228Z,8.25
2022-11-04T04:51:45.190Z,8.20
2022-11-04T04:55:46.523Z,8.17
2022-11-04T04:59:48.705Z,8.11
2022-11-04T05:03:50.065Z,8.03
2022-11-04T05:07:51.791Z,7.97
2022-11-04T05:11:53.106Z,7.97
2022-11-04T05:15:54.788Z,7.97
2022-11-04T05:19:56.038Z,7.93
2022-11-04T05:23:57.559Z,7.85
2022-11-04T05:27:59.758Z,7.73
2022-11-04T05:32:01.286Z,7.67
2022-11-04T05:36:06.883Z,7.65
2022-11-04T05:40:08.759Z,7.58
2022-11-04T05:44:10.934Z,7.60
2022-11-04T05:48:12.236Z,7.61
2022-11-04T05:52:16.165Z,7.63
2022-11-04T05:56:17.792Z,7.66
2022-11-04T06:00:19.383Z,7.68
2022-11-04T06:04:21.215Z,7.75
2022-11-04T06:08:22.751Z,7.84
2022-11-04T06:17:06.593Z,7.96
2022-11-04T06:21:38.734Z,7.99
2022-11-04T06:25:43.646Z,8.08
2022-11-04T06:29:49.438Z,8.11
2022-11-04T06:33:53.269Z,8.18
2022-11-04T06:42:17.771Z,8.32
2022-11-04T06:46:48.194Z,8.38
2022-11-04T06:55:29.001Z,8.43
2022-11-04T07:17:38.495Z,8.59
2022-11-04T07:26:59.066Z,8.61
2022-11-04T07:36:37.228Z,8.72
2022-11-04T07:46:04.978Z,8.94
2022-11-04T07:50:11.548Z,9.04
2022-11-04T07:54:19.377Z,9.14
2022-11-04T07:58:22.693Z,9.20
2022-11-04T08:02:36.079Z,9.25
2022-11-04T08:06:57.529Z,9.27
2022-11-04T08:11:03.989Z,9.29
2022-11-04T08:15:05.821Z,9.32
2022-11-04T08:19:07.191Z,9.33
2022-11-04T08:23:12.255Z,9.30
2022-11-04T08:27:14.271Z,9.31
2022-11-04T08:31:24.618Z,9.31
2022-11-04T08:35:26.043Z,9.34
2022-11-04T08:39:27.488Z,9.40
2022-11-04T08:43:29.040Z,9.46
2022-11-04T08:47:30.469Z,9.54
2022-11-04T08:51:33.488Z,9.58
2022-11-04T08:55:35.620Z,9.66
2022-11-04T08:59:36.866Z,9.75
2022-11-04T09:03:46.948Z,9.84
2022-11-04T09:08:01.463Z,9.93
2022-11-04T09:12:08.989Z,10.01
2022-11-04T09:20:37.569Z,10.11
2022-11-04T09:28:58.437Z,10.23
2022-11-04T09:33:00.070Z,10.29
2022-11-04T09:37:01.761Z,10.35
2022-11-04T09:41:09.081Z,10.38
2022-11-04T09:45:21.732Z,10.42
2022-11-04T09:49:26.462Z,10.49
2022-11-04T09:53:37.910Z,10.70
2022-11-04T09:57:39.327Z,11.01
2022-11-04T10:01:46.224Z,11.14
2022-11-04T10:05:47.516Z,11.22
2022-11-04T10:10:03.827Z,11.30
2022-11-04T10:14:08.963Z,11.24
2022-11-04T10:18:16.672Z,11.21
2022-11-04T10:22:28.434Z,11.22
2022-11-04T10:26:35.914Z,11.25
2022-11-04T10:30:37.287Z,11.33
2022-11-04T10:34:44.292Z,11.31
2022-11-04T10:38:50.488Z,11.12
2022-11-04T10:42:52.860Z,11.15
2022-11-04T10:46:59.407Z,11.26
2022-11-04T10:51:01.378Z,11.39
2022-11-04T10:55:02.949Z,11.47
2022-11-04T10:59:24.251Z,11.46
2022-11-04T11:03:27.877Z,11.42
2022-11-04T11:07:36.028Z,11.44
2022-11-04T11:11:37.307Z,11.54
2022-11-04T11:15:41.248Z,11.52
2022-11-04T11:19:51.839Z,11.55
2022-11-04T11:23:56.093Z,11.39
2022-11-04T11:27:59.107Z,11.44
2022-11-04T11:32:03.144Z,11.49
2022-11-04T11:36:16.713Z,11.48
2022-11-04T11:40:25.958Z,11.51
2022-11-04T11:44:38.614Z,11.49
2022-11-04T11:48:43.031Z,11.55
2022-11-04T11:52:45.073Z,11.62
2022-11-04T12:01:22.020Z,11.60
2022-11-04T12:10:50.884Z,11.65
2022-11-04T12:14:59.181Z,11.73
2022-11-04T12:19:19.432Z,11.80
2022-11-04T12:23:25.261Z,11.85
2022-11-04T12:27:34.080Z,11.84
2022-11-04T12:31:51.804Z,11.90
2022-11-04T12:35:53.687Z,11.95
2022-11-04T12:39:55.058Z,12.05
2022-11-04T12:44:15.131Z,12.16
2022-11-04T12:48:22.447Z,12.22
2022-11-04T12:52:31.524Z,12.27
2022-11-04T12:56:37.783Z,12.29
2022-11-04T13:00:41.208Z,12.24
2022-11-04T13:04:48.219Z,12.23
2022-11-04T13:08:56.202Z,12.25
2022-11-04T13:13:01.306Z,12.27
2022-11-04T13:17:07.747Z,12.21
2022-11-04T13:21:16.874Z,12.04
2022-11-04T13:25:38.378Z,12.03
2022-11-04T13:29:40.417Z,12.03
2022-11-04T13:33:54.678Z,11.97
2022-11-04T13:37:59.494Z,11.95
2022-11-04T13:42:10.079Z,11.94
2022-11-04T13:46:11.379Z,11.90
2022-11-04T13:50:30.300Z,11.88
2022-11-04T13:54:43.164Z,11.90
2022-11-04T13:58:51.604Z,11.93
2022-11-04T14:02:54.272Z,11.95
2022-11-04T14:06:57.540Z,11.94
2022-11-04T14:11:00.994Z,11.94
2022-11-04T14:15:04.854Z,11.89
2022-11-04T14:19:44.713Z,11.84
2022-11-04T14:23:47.304Z,11.74
2022-11-04T14:27:49.849Z,11.70
2022-11-04T14:31:52.456Z,11.70
2022-11-04T14:35:55.155Z,11.70
2022-11-04T14:40:00.792Z,11.70
2022-11-04T14:44:07.325Z,11.68
2022-11-04T14:48:29.649Z,11.66
2022-11-04T14:52:52.400Z,11.63
2022-11-04T14:57:07.175Z,11.62
2022-11-04T15:01:17.640Z,11.60
2022-11-04T15:05:26.323Z,11.52
2022-11-04T15:09:30.203Z,11.46
2022-11-04T15:13:44.941Z,11.40
2022-11-04T15:17:46.712Z,11.39
2022-11-04T15:21:49.615Z,11.37
2022-11-04T15:25:51.021Z,11.35
2022-11-04T15:29:55.384Z,11.30
2022-11-04T15:33:58.639Z,11.29
2022-11-04T15:38:01.184Z,11.25
2022-11-04T15:42:23.315Z,11.11
2022-11-04T15:46:26.136Z,11.02
2022-11-04T15:50:30.555Z,10.98
2022-11-04T15:54:34.301Z,11.00
2022-11-04T15:58:35.699Z,11.00
2022-11-04T16:02:39.249Z,10.97
2022-11-04T16:06:44.911Z,10.93
2022-11-04T16:10:46.194Z,10.84
2022-11-04T16:14:48.686Z,10.79
2022-11-04T16:18:57.491Z,10.74
2022-11-04T16:23:00.017Z,10.71
2022-11-04T16:27:01.417Z,10.71
2022-11-04T16:31:04.887Z,10.64
2022-11-04T16:35:12.738Z,10.62
2022-11-04T16:39:14.321Z,10.57
2022-11-04T16:43:19.413Z,10.56
2022-11-04T16:47:21.013Z,10.54
2022-11-04T16:51:23.435Z,10.51
2022-11-04T16:55:25.387Z,10.45
2022-11-04T16:59:26.681Z,10.44
2022-11-04T17:03:27.951Z,10.46
2022-11-04T17:07:47.181Z,10.44
2022-11-04T17:11:50.662Z,10.39
2022-11-04T17:15:52.164Z,10.35
2022-11-04T17:19:53.475Z,10.25
2022-11-04T17:23:56.210Z,10.25
2022-11-04T17:27:57.486Z,10.22
2022-11-04T17:31:58.808Z,10.19
2022-11-04T17:36:04.794Z,10.11
2022-11-04T17:40:11.989Z,10.03
2022-11-04T17:44:13.680Z,10.04
2022-11-04T17:48:15.291Z,10.05
2022-11-04T17:52:16.636Z,10.04
2022-11-04T17:56:19.059Z,10.01
2022-11-04T18:00:24.201Z,9.94
2022-11-04T18:04:25.678Z,9.93
2022-11-04T18:08:26.958Z,9.91
2022-11-04T18:12:37.383Z,9.93
2022-11-04T18:16:38.659Z,9.91
2022-11-04T18:20:40.110Z,9.84
2022-11-04T18:24:41.597Z,9.84
2022-11-04T18:28:43.032Z,9.81
2022-11-04T18:32:44.389Z,9.74
2022-11-04T18:36:46.523Z,9.67
2022-11-04T18:40:47.810Z,9.63
2022-11-04T18:44:49.255Z,9.69
2022-11-04T18:48:51.749Z,9.72
2022-11-04T18:52:53.795Z,9.70
2022-11-04T18:56:55.079Z,9.66
2022-11-04T19:00:56.420Z,9.66
2022-11-04T19:04:57.784Z,9.65
2022-11-04T19:09:32.110Z,9.62
2022-11-04T19:13:28.623Z,9.61
2022-11-04T19:17:29.911Z,9.58
2022-11-04T19:21:31.252Z,9.60
2022-11-04T19:25:32.901Z,9.60
2022-11-04T19:29:34.519Z,9.58
2022-11-04T19:33:36.054Z,9.53
2022-11-04T19:37:37.637Z,9.53
2022-11-04T19:41:57.897Z,9.49
2022-11-04T19:46:04.213Z,9.47
2022-11-04T19:50:06.659Z,9.39
2022-11-04T19:54:09.840Z,9.38
2022-11-04T19:58:12.092Z,9.39
2022-11-04T20:02:14.337Z,9.37
2022-11-04T20:06:16.301Z,9.33
2022-11-04T20:10:17.842Z,9.31
2022-11-04T20:14:19.154Z,9.29
2022-11-04T20:18:21.221Z,9.26
2022-11-04T20:22:22.529Z,9.29
2022-11-04T20:26:24.787Z,9.27
2022-11-04T20:30:26.093Z,9.25
2022-11-04T20:34:32.512Z,9.24
2022-11-04T20:38:34.270Z,9.19
2022-11-04T20:42:35.742Z,9.20
2022-11-04T20:46:37.304Z,9.22
2022-11-04T20:50:38.591Z,9.20
2022-11-04T20:54:39.854Z,9.21
2022-11-04T20:58:42.553Z,9.20
2022-11-04T21:02:43.923Z,9.24
2022-11-04T21:06:45.849Z,9.26
2022-11-04T21:10:50.620Z,9.29
2022-11-04T21:14:52.196Z,9.30
2022-11-04T21:18:54.348Z,9.28
2022-11-04T21:22:55.644Z,9.29
2022-11-04T21:26:56.966Z,9.30
2022-11-04T21:31:02.407Z,9.27
2022-11-04T21:35:03.855Z,9.25
2022-11-04T21:39:05.611Z,9.28
2022-11-04T21:43:06.871Z,9.29
2022-11-04T21:47:08.259Z,9.25
2022-11-04T21:51:11.299Z,9.26
2022-11-04T21:55:12.728Z,9.26
2022-11-04T21:59:18.164Z,9.28
2022-11-04T22:03:20.032Z,9.26
2022-11-04T22:07:41.316Z,9.27
2022-11-04T22:11:42.726Z,9.25
2022-11-04T22:15:59.281Z,9.24
2022-11-04T22:20:00.648Z,9.24
2022-11-04T22:24:01.957Z,9.25
2022-11-04T22:28:03.385Z,9.25
2022-11-04T22:32:04.983Z,9.22
2022-11-04T22:36:06.927Z,9.18
2022-11-04T22:40:08.615Z,9.18
2022-11-04T22:44:10.215Z,9.19
2022-11-04T22:48:11.893Z,9.22
2022-11-04T22:52:13.219Z,9.21
2022-11-04T22:56:14.898Z,9.21
2022-11-04T23:00:16.392Z,9.23
2022-11-04T23:04:17.701Z,9.28
2022-11-04T23:08:19.133Z,9.29
2022-11-04T23:12:39.453Z,9.30
2022-11-04T23:16:59.510Z,9.36
2022-11-04T23:21:19.647Z,9.34
2022-11-04T23:25:20.975Z,9.35
2022-11-04T23:29:41.146Z,9.33
2022-11-04T23:34:01.466Z,9.34
2022-11-04T23:38:03.220Z,9.35
2022-11-04T23:42:16.703Z,9.35
2022-11-04T23:46:42.598Z,9.33
2022-11-04T23:51:03.358Z,9.32
2022-11-04T23:55:23.996Z,9.36
2022-11-04T23:59:44.142Z,9.37
